<?xml version="1.0" encoding="ISO-8859-1" standalone="yes"?>
<gpx
 version="1.0"
 creator="OziExplorer Version 3954m - http://www.oziexplorer.com"
 xmlns:xsi="http://www.w3.org/2001/XMLSchema-instance"
 xmlns="http://www.topografix.com/GPX/1/0"
 xsi:schemaLocation="http://www.topografix.com/GPX/1/0 http://www.topografix.com/GPX/1/0/gpx.xsd">
<time>2024-04-08T23:51:55Z</time>
<bounds minlat="53.884708" minlon="28.126626" maxlat="54.052132" maxlon="28.859242"/>
<wpt lat="53.8855323" lon="28.6086368">
 <ele>0.000000</ele>
 <time>2024-04-08T12:24:07.003Z</time>
 <name>9 RUINI KOSTELA</name>
 <cmt>Руины костела ,вятого Антония</cmt>
 <desc>Руины костела ,вятого Антония</desc>
</wpt>
<wpt lat="53.8845023" lon="28.6155354">
 <ele>0.000000</ele>
 <time>2024-04-08T12:24:07.000Z</time>
 <name>8 KOMPLEKS LATVINSKIX</name>
 <cmt>Дворцово-Парковый комплекс ,латвинских</cmt>
 <desc>Дворцово-Парковый комплекс ,латвинских</desc>
</wpt>
<wpt lat="53.9454407" lon="28.5064715">
 <ele>0.000000</ele>
 <time>2024-04-08T12:24:07.002Z</time>
 <name>10 MEMORIAL RAZGROM</name>
 <cmt>Партизанский мемориал «Разгром»&lt;br/&gt;&lt;br/&gt;Дорога, для самых смелых!</cmt>
 <desc>Партизанский мемориал «Разгром»&lt;br/&gt;&lt;br/&gt;Дорога, для самых смелых!</desc>
</wpt>
<wpt lat="53.9754700" lon="28.6729528">
 <ele>0.000000</ele>
 <time>2024-04-08T12:24:07.005Z</time>
 <name>7 LESNOE OZERO</name>
 <cmt>Красивое лесное озеро в окружении сосен. По желанию можно искупаться. &lt;br/&gt;Здесь моржует Громов</cmt>
 <desc>Красивое лесное озеро в окружении сосен. По желанию можно искупаться. &lt;br/&gt;Здесь моржует Громов</desc>
</wpt>
<wpt lat="54.0076300" lon="28.8317470">
 <ele>169.773605</ele>
 <time>2024-03-31T10:29:23.097Z</time>
 <name>DELANKA LES</name>
</wpt>
<wpt lat="53.9753170" lon="28.8083020">
 <ele>162.458405</ele>
 <time>2024-03-31T10:40:39.099Z</time>
 <name>4 MESTO VANCOVIC</name>
</wpt>
<wpt lat="53.9557740" lon="28.6999630">
 <ele>156.972000</ele>
 <time>2024-03-31T13:59:39.002Z</time>
 <name>6 ISTOCNIK</name>
</wpt>
<wpt lat="53.9784550" lon="28.8173210">
 <ele>0.000000</ele>
 <time>2024-04-08T09:36:36.022Z</time>
 <name>MESTO SBORA</name>
</wpt>
<wpt lat="53.9092470" lon="28.8555070">
 <ele>0.000000</ele>
 <time>2024-04-08T09:38:29.017Z</time>
 <name>5 ZOOPARK</name>
</wpt>
<wpt lat="54.0514000" lon="28.8305030">
 <ele>0.000000</ele>
 <time>2024-04-08T09:49:12.014Z</time>
 <name>2 OBNOJENIE MUROVA</name>
</wpt>
<wpt lat="54.0447120" lon="28.8479230">
 <ele>0.000000</ele>
 <time>2024-04-08T09:49:53.038Z</time>
 <name>1 KAMNI</name>
</wpt>
<wpt lat="53.9793665" lon="28.8198791">
 <time>2024-04-09T02:48:24.246Z</time>
 <name>3 MAGAZIN</name>
</wpt>
<trk>
 <desc>Joined Track</desc>
<trkseg>
<trkpt lat="53.9340870" lon="28.8509270">
<ele>0.000000</ele>
<time>2024-04-08T07:23:11.032Z</time>
</trkpt>
<trkpt lat="53.9392520" lon="28.8510580">
<ele>0.000000</ele>
<time>2024-04-08T07:23:13.022Z</time>
</trkpt>
<trkpt lat="53.9446450" lon="28.8511900">
<ele>0.000000</ele>
<time>2024-04-08T07:23:20.059Z</time>
</trkpt>
<trkpt lat="53.9500380" lon="28.8519600">
<ele>0.000000</ele>
<time>2024-04-08T07:23:25.019Z</time>
</trkpt>
<trkpt lat="53.9525450" lon="28.8510670">
<ele>0.000000</ele>
<time>2024-04-08T07:23:26.004Z</time>
</trkpt>
<trkpt lat="53.9607520" lon="28.8421240">
<ele>0.000000</ele>
<time>2024-04-08T07:23:27.046Z</time>
</trkpt>
<trkpt lat="53.9651580" lon="28.8399530">
<ele>0.000000</ele>
<time>2024-04-08T07:23:28.059Z</time>
</trkpt>
<trkpt lat="53.9666010" lon="28.8408490">
<ele>0.000000</ele>
<time>2024-04-08T07:23:29.057Z</time>
</trkpt>
<trkpt lat="53.9691090" lon="28.8353510">
<ele>0.000000</ele>
<time>2024-04-08T07:23:35.091Z</time>
</trkpt>
<trkpt lat="53.9786830" lon="28.8165540">
<ele>0.000000</ele>
<time>2024-04-08T07:23:43.097Z</time>
</trkpt>
</trkseg>
<trkseg>
<trkpt lat="53.9547460" lon="28.7491930">
<ele>0.000000</ele>
<time>2024-04-08T07:18:58.064Z</time>
</trkpt>
<trkpt lat="53.9528480" lon="28.7507310">
<ele>0.000000</ele>
<time>2024-04-08T07:19:00.030Z</time>
</trkpt>
<trkpt lat="53.9495070" lon="28.7535480">
<ele>0.000000</ele>
<time>2024-04-08T07:19:07.023Z</time>
</trkpt>
<trkpt lat="53.9484440" lon="28.7539330">
<ele>0.000000</ele>
<time>2024-04-08T07:19:08.081Z</time>
</trkpt>
<trkpt lat="53.9475320" lon="28.7541900">
<ele>0.000000</ele>
<time>2024-04-08T07:19:10.090Z</time>
</trkpt>
<trkpt lat="53.9449500" lon="28.7552170">
<ele>0.000000</ele>
<time>2024-04-08T07:19:12.045Z</time>
</trkpt>
<trkpt lat="53.9442670" lon="28.7558570">
<ele>0.000000</ele>
<time>2024-04-08T07:19:13.051Z</time>
</trkpt>
<trkpt lat="53.9435080" lon="28.7575190">
<ele>0.000000</ele>
<time>2024-04-08T07:19:14.072Z</time>
</trkpt>
<trkpt lat="53.9431280" lon="28.7586700">
<ele>0.000000</ele>
<time>2024-04-08T07:19:15.074Z</time>
</trkpt>
<trkpt lat="53.9423700" lon="28.7627610">
<ele>0.000000</ele>
<time>2024-04-08T07:19:18.072Z</time>
</trkpt>
<trkpt lat="53.9421430" lon="28.7644220">
<ele>0.000000</ele>
<time>2024-04-08T07:19:20.038Z</time>
</trkpt>
<trkpt lat="53.9411560" lon="28.7681290">
<ele>0.000000</ele>
<time>2024-04-08T07:19:21.033Z</time>
</trkpt>
<trkpt lat="53.9410810" lon="28.7694070">
<ele>0.000000</ele>
<time>2024-04-08T07:19:22.094Z</time>
</trkpt>
<trkpt lat="53.9401710" lon="28.7769470">
<ele>0.000000</ele>
<time>2024-04-08T07:19:24.075Z</time>
</trkpt>
<trkpt lat="53.9401720" lon="28.7796310">
<ele>0.000000</ele>
<time>2024-04-08T07:19:28.008Z</time>
</trkpt>
<trkpt lat="53.9407800" lon="28.7835910">
<ele>0.000000</ele>
<time>2024-04-08T07:19:38.086Z</time>
</trkpt>
<trkpt lat="53.9425270" lon="28.7855060">
<ele>0.000000</ele>
<time>2024-04-08T07:19:41.060Z</time>
</trkpt>
<trkpt lat="53.9448060" lon="28.7846100">
<ele>0.000000</ele>
<time>2024-04-08T07:19:42.090Z</time>
</trkpt>
<trkpt lat="53.9473120" lon="28.7835850">
<ele>0.000000</ele>
<time>2024-04-08T07:19:44.046Z</time>
</trkpt>
<trkpt lat="53.9506550" lon="28.7834540">
<ele>0.000000</ele>
<time>2024-04-08T07:19:46.076Z</time>
</trkpt>
<trkpt lat="53.9540730" lon="28.7833230">
<ele>0.000000</ele>
<time>2024-04-08T07:19:47.066Z</time>
</trkpt>
<trkpt lat="53.9548320" lon="28.7839620">
<ele>0.000000</ele>
<time>2024-04-08T07:19:49.012Z</time>
</trkpt>
<trkpt lat="53.9565800" lon="28.7876670">
<ele>0.000000</ele>
<time>2024-04-08T07:19:51.051Z</time>
</trkpt>
<trkpt lat="53.9549090" lon="28.7906080">
<ele>0.000000</ele>
<time>2024-04-08T07:19:53.043Z</time>
</trkpt>
<trkpt lat="53.9534660" lon="28.7927830">
<ele>0.000000</ele>
<time>2024-04-08T07:19:55.015Z</time>
</trkpt>
<trkpt lat="53.9526310" lon="28.7938060">
<ele>0.000000</ele>
<time>2024-04-08T07:19:58.021Z</time>
</trkpt>
<trkpt lat="53.9513390" lon="28.7952120">
<ele>0.000000</ele>
<time>2024-04-08T07:19:59.057Z</time>
</trkpt>
<trkpt lat="53.9493650" lon="28.7970030">
<ele>0.000000</ele>
<time>2024-04-08T07:20:01.038Z</time>
</trkpt>
<trkpt lat="53.9483770" lon="28.7975150">
<ele>0.000000</ele>
<time>2024-04-08T07:20:02.043Z</time>
</trkpt>
<trkpt lat="53.9467820" lon="28.7980270">
<ele>0.000000</ele>
<time>2024-04-08T07:20:03.071Z</time>
</trkpt>
<trkpt lat="53.9459470" lon="28.7980270">
<ele>0.000000</ele>
<time>2024-04-08T07:20:05.058Z</time>
</trkpt>
<trkpt lat="53.9442000" lon="28.7998180">
<ele>0.000000</ele>
<time>2024-04-08T07:20:07.007Z</time>
</trkpt>
<trkpt lat="53.9414650" lon="28.8036530">
<ele>0.000000</ele>
<time>2024-04-08T07:20:09.097Z</time>
</trkpt>
<trkpt lat="53.9405540" lon="28.8054420">
<ele>0.000000</ele>
<time>2024-04-08T07:20:11.026Z</time>
</trkpt>
<trkpt lat="53.9385790" lon="28.8073590">
<ele>0.000000</ele>
<time>2024-04-08T07:20:12.054Z</time>
</trkpt>
<trkpt lat="53.9385030" lon="28.8079980">
<ele>0.000000</ele>
<time>2024-04-08T07:20:14.079Z</time>
</trkpt>
<trkpt lat="53.9369070" lon="28.8111930">
<ele>0.000000</ele>
<time>2024-04-08T07:20:16.037Z</time>
</trkpt>
<trkpt lat="53.9364510" lon="28.8138760">
<ele>0.000000</ele>
<time>2024-04-08T07:20:19.013Z</time>
</trkpt>
<trkpt lat="53.9364510" lon="28.8156650">
<ele>0.000000</ele>
<time>2024-04-08T07:20:20.021Z</time>
</trkpt>
<trkpt lat="53.9353870" lon="28.8211590">
<ele>0.000000</ele>
<time>2024-04-08T07:20:21.058Z</time>
</trkpt>
<trkpt lat="53.9345510" lon="28.8244810">
<ele>0.000000</ele>
<time>2024-04-08T07:20:24.036Z</time>
</trkpt>
<trkpt lat="53.9332600" lon="28.8242250">
<ele>0.000000</ele>
<time>2024-04-08T07:20:25.070Z</time>
</trkpt>
<trkpt lat="53.9321200" lon="28.8240970">
<ele>0.000000</ele>
<time>2024-04-08T07:20:27.016Z</time>
</trkpt>
<trkpt lat="53.9306770" lon="28.8234590">
<ele>0.000000</ele>
<time>2024-04-08T07:20:28.030Z</time>
</trkpt>
<trkpt lat="53.9305250" lon="28.8266520">
<ele>0.000000</ele>
<time>2024-04-08T07:20:30.089Z</time>
</trkpt>
<trkpt lat="53.9294610" lon="28.8274190">
<ele>0.000000</ele>
<time>2024-04-08T07:20:33.063Z</time>
</trkpt>
<trkpt lat="53.9280940" lon="28.8274190">
<ele>0.000000</ele>
<time>2024-04-08T07:20:35.003Z</time>
</trkpt>
<trkpt lat="53.9275620" lon="28.8286960">
<ele>0.000000</ele>
<time>2024-04-08T07:20:36.012Z</time>
</trkpt>
<trkpt lat="53.9267260" lon="28.8289510">
<ele>0.000000</ele>
<time>2024-04-08T07:20:37.040Z</time>
</trkpt>
<trkpt lat="53.9255870" lon="28.8289510">
<ele>0.000000</ele>
<time>2024-04-08T07:20:38.068Z</time>
</trkpt>
<trkpt lat="53.9245990" lon="28.8294620">
<ele>0.000000</ele>
<time>2024-04-08T07:20:39.063Z</time>
</trkpt>
<trkpt lat="53.9239160" lon="28.8295890">
<ele>0.000000</ele>
<time>2024-04-08T07:20:40.081Z</time>
</trkpt>
<trkpt lat="53.9275600" lon="28.8355940">
<ele>0.000000</ele>
<time>2024-04-08T07:20:46.041Z</time>
</trkpt>
<trkpt lat="53.9296860" lon="28.8382770">
<ele>0.000000</ele>
<time>2024-04-08T07:20:47.074Z</time>
</trkpt>
<trkpt lat="53.9318120" lon="28.8407050">
<ele>0.000000</ele>
<time>2024-04-08T07:20:49.006Z</time>
</trkpt>
<trkpt lat="53.9328750" lon="28.8423670">
<ele>0.000000</ele>
<time>2024-04-08T07:20:52.019Z</time>
</trkpt>
<trkpt lat="53.9336330" lon="28.8469660">
<ele>0.000000</ele>
<time>2024-04-08T07:20:53.090Z</time>
</trkpt>
<trkpt lat="53.9339350" lon="28.8509270">
<ele>0.000000</ele>
<time>2024-04-08T07:20:55.044Z</time>
</trkpt>
<trkpt lat="53.9319600" lon="28.8522030">
<ele>0.000000</ele>
<time>2024-04-08T07:20:56.051Z</time>
</trkpt>
<trkpt lat="53.9305170" lon="28.8528410">
<ele>0.000000</ele>
<time>2024-04-08T07:20:57.063Z</time>
</trkpt>
<trkpt lat="53.9294530" lon="28.8543730">
<ele>0.000000</ele>
<time>2024-04-08T07:20:58.085Z</time>
</trkpt>
<trkpt lat="53.9285410" lon="28.8550110">
<ele>0.000000</ele>
<time>2024-04-08T07:21:02.042Z</time>
</trkpt>
<trkpt lat="53.9273250" lon="28.8559040">
<ele>0.000000</ele>
<time>2024-04-08T07:21:03.041Z</time>
</trkpt>
<trkpt lat="53.9259580" lon="28.8555200">
<ele>0.000000</ele>
<time>2024-04-08T07:21:04.040Z</time>
</trkpt>
<trkpt lat="53.9245910" lon="28.8557740">
<ele>0.000000</ele>
<time>2024-04-08T07:21:06.027Z</time>
</trkpt>
<trkpt lat="53.9224640" lon="28.8565390">
<ele>0.000000</ele>
<time>2024-04-08T07:21:07.041Z</time>
</trkpt>
<trkpt lat="53.9204120" lon="28.8570480">
<ele>0.000000</ele>
<time>2024-04-08T07:21:09.021Z</time>
</trkpt>
<trkpt lat="53.9197290" lon="28.8573030">
<ele>0.000000</ele>
<time>2024-04-08T07:21:12.031Z</time>
</trkpt>
<trkpt lat="53.9181340" lon="28.8564080">
<ele>0.000000</ele>
<time>2024-04-08T07:21:14.019Z</time>
</trkpt>
<trkpt lat="53.9153240" lon="28.8565330">
<ele>0.000000</ele>
<time>2024-04-08T07:21:15.052Z</time>
</trkpt>
<trkpt lat="53.9112220" lon="28.8565300">
<ele>0.000000</ele>
<time>2024-04-08T07:21:45.030Z</time>
</trkpt>
<trkpt lat="53.9106140" lon="28.8565300">
<ele>0.000000</ele>
<time>2024-04-08T07:21:46.076Z</time>
</trkpt>
<trkpt lat="53.9097030" lon="28.8565290">
<ele>0.000000</ele>
<time>2024-04-08T07:21:48.004Z</time>
</trkpt>
<trkpt lat="53.9093230" lon="28.8557620">
<ele>0.000000</ele>
<time>2024-04-08T07:21:55.043Z</time>
</trkpt>
</trkseg>
<trkseg>
<trkpt lat="53.9784660" lon="28.8167730">
<ele>0.000000</ele>
<time>2024-04-08T07:16:01.070Z</time>
</trkpt>
<trkpt lat="53.9808210" lon="28.8114010">
<ele>0.000000</ele>
<time>2024-04-08T07:16:04.039Z</time>
</trkpt>
<trkpt lat="53.9827200" lon="28.8078190">
<ele>0.000000</ele>
<time>2024-04-08T07:16:05.093Z</time>
</trkpt>
<trkpt lat="53.9853780" lon="28.8038530">
<ele>0.000000</ele>
<time>2024-04-08T07:16:09.063Z</time>
</trkpt>
<trkpt lat="53.9906180" lon="28.7968150">
<ele>0.000000</ele>
<time>2024-04-08T07:16:12.028Z</time>
</trkpt>
<trkpt lat="53.9963140" lon="28.7891350">
<ele>0.000000</ele>
<time>2024-04-08T07:16:15.016Z</time>
</trkpt>
<trkpt lat="53.9919030" lon="28.7763400">
<ele>0.000000</ele>
<time>2024-04-08T07:16:17.048Z</time>
</trkpt>
<trkpt lat="53.9914470" lon="28.7757010">
<ele>0.000000</ele>
<time>2024-04-08T07:16:19.071Z</time>
</trkpt>
<trkpt lat="53.9891680" lon="28.7753190">
<ele>0.000000</ele>
<time>2024-04-08T07:16:22.085Z</time>
</trkpt>
<trkpt lat="53.9887120" lon="28.7753190">
<ele>0.000000</ele>
<time>2024-04-08T07:16:25.017Z</time>
</trkpt>
<trkpt lat="53.9856730" lon="28.7760890">
<ele>0.000000</ele>
<time>2024-04-08T07:16:26.037Z</time>
</trkpt>
<trkpt lat="53.9834690" lon="28.7750670">
<ele>0.000000</ele>
<time>2024-04-08T07:16:29.094Z</time>
</trkpt>
<trkpt lat="53.9820250" lon="28.7740450">
<ele>0.000000</ele>
<time>2024-04-08T07:16:31.065Z</time>
</trkpt>
<trkpt lat="53.9813410" lon="28.7730220">
<ele>0.000000</ele>
<time>2024-04-08T07:16:33.012Z</time>
</trkpt>
<trkpt lat="53.9814910" lon="28.7681600">
<ele>0.000000</ele>
<time>2024-04-08T07:16:34.099Z</time>
</trkpt>
<trkpt lat="53.9814890" lon="28.7643220">
<ele>0.000000</ele>
<time>2024-04-08T07:16:36.034Z</time>
</trkpt>
<trkpt lat="53.9814870" lon="28.7602290">
<ele>0.000000</ele>
<time>2024-04-08T07:16:39.001Z</time>
</trkpt>
<trkpt lat="53.9814100" lon="28.7594610">
<ele>0.000000</ele>
<time>2024-04-08T07:16:40.011Z</time>
</trkpt>
<trkpt lat="53.9811060" lon="28.7590780">
<ele>0.000000</ele>
<time>2024-04-08T07:16:41.050Z</time>
</trkpt>
<trkpt lat="53.9779140" lon="28.7570350">
<ele>0.000000</ele>
<time>2024-04-08T07:16:43.006Z</time>
</trkpt>
<trkpt lat="53.9748740" lon="28.7543520">
<ele>0.000000</ele>
<time>2024-04-08T07:16:45.078Z</time>
</trkpt>
<trkpt lat="53.9744180" lon="28.7540970">
<ele>0.000000</ele>
<time>2024-04-08T07:16:47.025Z</time>
</trkpt>
<trkpt lat="53.9735060" lon="28.7540980">
<ele>0.000000</ele>
<time>2024-04-08T07:16:48.039Z</time>
</trkpt>
<trkpt lat="53.9730500" lon="28.7540990">
<ele>0.000000</ele>
<time>2024-04-08T07:16:49.063Z</time>
</trkpt>
<trkpt lat="53.9722140" lon="28.7538440">
<ele>0.000000</ele>
<time>2024-04-08T07:16:50.059Z</time>
</trkpt>
<trkpt lat="53.9713780" lon="28.7537170">
<ele>0.000000</ele>
<time>2024-04-08T07:16:51.069Z</time>
</trkpt>
<trkpt lat="53.9708460" lon="28.7534620">
<ele>0.000000</ele>
<time>2024-04-08T07:16:53.064Z</time>
</trkpt>
<trkpt lat="53.9707700" lon="28.7533340">
<ele>0.000000</ele>
<time>2024-04-08T07:16:55.022Z</time>
</trkpt>
<trkpt lat="53.9695590" lon="28.7524920">
<ele>0.000000</ele>
<time>2024-04-08T07:17:29.093Z</time>
</trkpt>
<trkpt lat="53.9650010" lon="28.7512210">
<ele>0.000000</ele>
<time>2024-04-08T07:17:31.082Z</time>
</trkpt>
<trkpt lat="53.9640900" lon="28.7509670">
<ele>0.000000</ele>
<time>2024-04-08T07:17:34.004Z</time>
</trkpt>
<trkpt lat="53.9612030" lon="28.7508440">
<ele>0.000000</ele>
<time>2024-04-08T07:17:35.094Z</time>
</trkpt>
<trkpt lat="53.9605200" lon="28.7511010">
<ele>0.000000</ele>
<time>2024-04-08T07:17:38.049Z</time>
</trkpt>
<trkpt lat="53.9593050" lon="28.7521260">
<ele>0.000000</ele>
<time>2024-04-08T07:17:43.045Z</time>
</trkpt>
<trkpt lat="53.9577860" lon="28.7526400">
<ele>0.000000</ele>
<time>2024-04-08T07:17:44.076Z</time>
</trkpt>
<trkpt lat="53.9564940" lon="28.7512360">
<ele>0.000000</ele>
<time>2024-04-08T07:17:46.055Z</time>
</trkpt>
<trkpt lat="53.9526180" lon="28.7465130">
<ele>0.000000</ele>
<time>2024-04-08T07:17:53.029Z</time>
</trkpt>
<trkpt lat="53.9522380" lon="28.7451080">
<ele>0.000000</ele>
<time>2024-04-08T07:17:54.074Z</time>
</trkpt>
<trkpt lat="53.9529860" lon="28.7256780">
<ele>0.000000</ele>
<time>2024-04-08T07:17:58.024Z</time>
</trkpt>
<trkpt lat="53.9525300" lon="28.7252950">
<ele>0.000000</ele>
<time>2024-04-08T07:17:59.050Z</time>
</trkpt>
<trkpt lat="53.9519990" lon="28.7255520">
<ele>0.000000</ele>
<time>2024-04-08T07:18:00.090Z</time>
</trkpt>
<trkpt lat="53.9503280" lon="28.7259390">
<ele>0.000000</ele>
<time>2024-04-08T07:18:01.099Z</time>
</trkpt>
<trkpt lat="53.9491860" lon="28.7214690">
<ele>0.000000</ele>
<time>2024-04-08T07:18:03.049Z</time>
</trkpt>
<trkpt lat="53.9482730" lon="28.7189150">
<ele>0.000000</ele>
<time>2024-04-08T07:18:05.017Z</time>
</trkpt>
<trkpt lat="53.9479680" lon="28.7176380">
<ele>0.000000</ele>
<time>2024-04-08T07:18:06.055Z</time>
</trkpt>
<trkpt lat="53.9481190" lon="28.7167430">
<ele>0.000000</ele>
<time>2024-04-08T07:18:07.029Z</time>
</trkpt>
<trkpt lat="53.9481940" lon="28.7157200">
<ele>0.000000</ele>
<time>2024-04-08T07:18:08.017Z</time>
</trkpt>
<trkpt lat="53.9557020" lon="28.7003610">
<ele>0.000000</ele>
<time>2024-04-08T07:18:18.011Z</time>
</trkpt>
</trkseg>
<trkseg>
<trkpt lat="54.0096910" lon="28.8272780">
<ele>0.000000</ele>
<time>2024-04-08T07:14:24.031Z</time>
</trkpt>
<trkpt lat="54.0080200" lon="28.8226690">
<ele>0.000000</ele>
<time>2024-04-08T07:14:28.028Z</time>
</trkpt>
<trkpt lat="54.0057410" lon="28.8189560">
<ele>0.000000</ele>
<time>2024-04-08T07:14:30.008Z</time>
</trkpt>
<trkpt lat="54.0015620" lon="28.8174190">
<ele>0.000000</ele>
<time>2024-04-08T07:14:33.036Z</time>
</trkpt>
<trkpt lat="53.9996630" lon="28.8170340">
<ele>0.000000</ele>
<time>2024-04-08T07:14:35.013Z</time>
</trkpt>
<trkpt lat="53.9970790" lon="28.8169060">
<ele>0.000000</ele>
<time>2024-04-08T07:14:37.016Z</time>
</trkpt>
<trkpt lat="53.9910020" lon="28.8188240">
<ele>0.000000</ele>
<time>2024-04-08T07:14:39.072Z</time>
</trkpt>
<trkpt lat="53.9903940" lon="28.8188230">
<ele>0.000000</ele>
<time>2024-04-08T07:14:40.064Z</time>
</trkpt>
<trkpt lat="53.9854560" lon="28.8156240">
<ele>0.000000</ele>
<time>2024-04-08T07:14:42.014Z</time>
</trkpt>
<trkpt lat="53.9850760" lon="28.8160070">
<ele>0.000000</ele>
<time>2024-04-08T07:14:44.066Z</time>
</trkpt>
<trkpt lat="53.9848480" lon="28.8165190">
<ele>0.000000</ele>
<time>2024-04-08T07:14:46.030Z</time>
</trkpt>
<trkpt lat="53.9846200" lon="28.8175420">
<ele>0.000000</ele>
<time>2024-04-08T07:14:47.054Z</time>
</trkpt>
<trkpt lat="53.9805180" lon="28.8179250">
<ele>0.000000</ele>
<time>2024-04-08T07:14:50.027Z</time>
</trkpt>
<trkpt lat="53.9789220" lon="28.8171570">
<ele>0.000000</ele>
<time>2024-04-08T07:14:57.055Z</time>
</trkpt>
<trkpt lat="53.9783900" lon="28.8167730">
<ele>0.000000</ele>
<time>2024-04-08T07:14:58.070Z</time>
</trkpt>
<trkpt lat="53.9780860" lon="28.8151100">
<ele>0.000000</ele>
<time>2024-04-08T07:15:00.028Z</time>
</trkpt>
<trkpt lat="53.9788450" lon="28.8110170">
<ele>0.000000</ele>
<time>2024-04-08T07:15:01.024Z</time>
</trkpt>
<trkpt lat="53.9755020" lon="28.8085860">
<ele>0.000000</ele>
<time>2024-04-08T07:15:05.082Z</time>
</trkpt>
</trkseg>
<trkseg>
<trkpt lat="54.0419030" lon="28.8371590">
<ele>0.000000</ele>
<time>2024-04-08T07:12:40.073Z</time>
</trkpt>
<trkpt lat="54.0435750" lon="28.8352380">
<ele>0.000000</ele>
<time>2024-04-08T07:12:42.059Z</time>
</trkpt>
<trkpt lat="54.0446380" lon="28.8338300">
<ele>0.000000</ele>
<time>2024-04-08T07:12:46.069Z</time>
</trkpt>
<trkpt lat="54.0450940" lon="28.8321640">
<ele>0.000000</ele>
<time>2024-04-08T07:12:47.097Z</time>
</trkpt>
<trkpt lat="54.0458540" lon="28.8311400">
<ele>0.000000</ele>
<time>2024-04-08T07:12:49.036Z</time>
</trkpt>
<trkpt lat="54.0465380" lon="28.8288340">
<ele>0.000000</ele>
<time>2024-04-08T07:12:50.028Z</time>
</trkpt>
<trkpt lat="54.0499570" lon="28.8247350">
<ele>0.000000</ele>
<time>2024-04-08T07:12:53.019Z</time>
</trkpt>
<trkpt lat="54.0502600" lon="28.8252480">
<ele>0.000000</ele>
<time>2024-04-08T07:13:03.081Z</time>
</trkpt>
<trkpt lat="54.0506400" lon="28.8251200">
<ele>0.000000</ele>
<time>2024-04-08T07:13:04.075Z</time>
</trkpt>
<trkpt lat="54.0511720" lon="28.8249920">
<ele>0.000000</ele>
<time>2024-04-08T07:13:05.081Z</time>
</trkpt>
<trkpt lat="54.0519320" lon="28.8253770">
<ele>0.000000</ele>
<time>2024-04-08T07:13:09.005Z</time>
</trkpt>
<trkpt lat="54.0519320" lon="28.8285810">
<ele>0.000000</ele>
<time>2024-04-08T07:13:12.018Z</time>
</trkpt>
<trkpt lat="54.0519320" lon="28.8292210">
<ele>0.000000</ele>
<time>2024-04-08T07:13:17.080Z</time>
</trkpt>
</trkseg>
<trkseg>
<trkpt lat="54.0076400" lon="28.8315010">
<ele>0.000000</ele>
<time>2024-04-08T07:11:19.099Z</time>
</trkpt>
<trkpt lat="54.0077160" lon="28.8289410">
<ele>0.000000</ele>
<time>2024-04-08T07:11:22.070Z</time>
</trkpt>
<trkpt lat="54.0082480" lon="28.8277890">
<ele>0.000000</ele>
<time>2024-04-08T07:11:24.059Z</time>
</trkpt>
<trkpt lat="54.0096910" lon="28.8271500">
<ele>0.000000</ele>
<time>2024-04-08T07:11:25.090Z</time>
</trkpt>
<trkpt lat="54.0109070" lon="28.8300950">
<ele>0.000000</ele>
<time>2024-04-08T07:11:31.015Z</time>
</trkpt>
<trkpt lat="54.0125780" lon="28.8329130">
<ele>0.000000</ele>
<time>2024-04-08T07:11:32.036Z</time>
</trkpt>
<trkpt lat="54.0146290" lon="28.8339380">
<ele>0.000000</ele>
<time>2024-04-08T07:11:33.057Z</time>
</trkpt>
<trkpt lat="54.0182000" lon="28.8336840">
<ele>0.000000</ele>
<time>2024-04-08T07:11:36.036Z</time>
</trkpt>
<trkpt lat="54.0200230" lon="28.8344540">
<ele>0.000000</ele>
<time>2024-04-08T07:11:37.084Z</time>
</trkpt>
<trkpt lat="54.0330900" lon="28.8385610">
<ele>0.000000</ele>
<time>2024-04-08T07:11:41.082Z</time>
</trkpt>
<trkpt lat="54.0378000" lon="28.8395900">
<ele>0.000000</ele>
<time>2024-04-08T07:11:45.001Z</time>
</trkpt>
<trkpt lat="54.0385600" lon="28.8394620">
<ele>0.000000</ele>
<time>2024-04-08T07:11:45.088Z</time>
</trkpt>
<trkpt lat="54.0397760" lon="28.8379260">
<ele>0.000000</ele>
<time>2024-04-08T07:11:47.062Z</time>
</trkpt>
<trkpt lat="54.0417510" lon="28.8370310">
<ele>0.000000</ele>
<time>2024-04-08T07:11:49.090Z</time>
</trkpt>
<trkpt lat="54.0421310" lon="28.8371590">
<ele>0.000000</ele>
<time>2024-04-08T07:11:55.076Z</time>
</trkpt>
<trkpt lat="54.0429660" lon="28.8386970">
<ele>0.000000</ele>
<time>2024-04-08T07:11:57.006Z</time>
</trkpt>
<trkpt lat="54.0432700" lon="28.8401070">
<ele>0.000000</ele>
<time>2024-04-08T07:11:58.053Z</time>
</trkpt>
<trkpt lat="54.0437260" lon="28.8404910">
<ele>0.000000</ele>
<time>2024-04-08T07:11:59.033Z</time>
</trkpt>
<trkpt lat="54.0454730" lon="28.8395960">
<ele>0.000000</ele>
<time>2024-04-08T07:12:00.078Z</time>
</trkpt>
<trkpt lat="54.0457770" lon="28.8398530">
<ele>0.000000</ele>
<time>2024-04-08T07:12:02.048Z</time>
</trkpt>
<trkpt lat="54.0457770" lon="28.8406210">
<ele>0.000000</ele>
<time>2024-04-08T07:12:03.034Z</time>
</trkpt>
<trkpt lat="54.0456250" lon="28.8416460">
<ele>0.000000</ele>
<time>2024-04-08T07:12:04.044Z</time>
</trkpt>
<trkpt lat="54.0453970" lon="28.8426710">
<ele>0.000000</ele>
<time>2024-04-08T07:12:05.052Z</time>
</trkpt>
<trkpt lat="54.0453210" lon="28.8438240">
<ele>0.000000</ele>
<time>2024-04-08T07:12:06.079Z</time>
</trkpt>
<trkpt lat="54.0457000" lon="28.8460030">
<ele>0.000000</ele>
<time>2024-04-08T07:12:07.096Z</time>
</trkpt>
<trkpt lat="54.0460800" lon="28.8476690">
<ele>0.000000</ele>
<time>2024-04-08T07:12:11.038Z</time>
</trkpt>
<trkpt lat="54.0462310" lon="28.8501030">
<ele>0.000000</ele>
<time>2024-04-08T07:12:12.084Z</time>
</trkpt>
<trkpt lat="54.0460040" lon="28.8503590">
<ele>0.000000</ele>
<time>2024-04-08T07:12:16.006Z</time>
</trkpt>
<trkpt lat="54.0449400" lon="28.8479240">
<ele>0.000000</ele>
<time>2024-04-08T07:12:18.042Z</time>
</trkpt>
</trkseg>
<trkseg>
<trkpt lat="53.9155247" lon="28.5497826">
<ele>0.000000</ele>
<time>2024-04-08T11:31:18.036Z</time>
</trkpt>
<trkpt lat="53.9206234" lon="28.5542197">
<ele>0.000000</ele>
<time>2024-04-08T11:31:20.076Z</time>
</trkpt>
<trkpt lat="53.9211538" lon="28.5535777">
<ele>0.000000</ele>
<time>2024-04-08T11:31:22.016Z</time>
</trkpt>
</trkseg>
<trkseg>
<trkpt lat="53.9157110" lon="28.5666392">
<ele>0.000000</ele>
<time>2024-04-08T10:12:40.003Z</time>
</trkpt>
<trkpt lat="53.9134116" lon="28.5564370">
<ele>0.000000</ele>
<time>2024-04-08T10:12:41.009Z</time>
</trkpt>
<trkpt lat="53.9152201" lon="28.5494015">
<ele>0.000000</ele>
<time>2024-04-08T10:12:42.005Z</time>
</trkpt>
<trkpt lat="53.9151235" lon="28.5398239">
<ele>0.000000</ele>
<time>2024-04-08T10:12:43.005Z</time>
</trkpt>
<trkpt lat="53.9157451" lon="28.5128725">
<ele>0.000000</ele>
<time>2024-04-08T10:12:49.004Z</time>
</trkpt>
<trkpt lat="53.9161648" lon="28.4983100">
<ele>0.000000</ele>
<time>2024-04-08T10:12:51.008Z</time>
</trkpt>
<trkpt lat="53.9181670" lon="28.4896154">
<ele>0.000000</ele>
<time>2024-04-08T10:13:18.007Z</time>
</trkpt>
<trkpt lat="53.9250300" lon="28.4798253">
<ele>0.000000</ele>
<time>2024-04-08T10:13:19.001Z</time>
</trkpt>
<trkpt lat="53.9280403" lon="28.4595242">
<ele>0.000000</ele>
<time>2024-04-08T10:13:20.000Z</time>
</trkpt>
<trkpt lat="53.9347811" lon="28.4341299">
<ele>0.000000</ele>
<time>2024-04-08T10:13:21.000Z</time>
</trkpt>
<trkpt lat="53.9400731" lon="28.4084637">
<ele>0.000000</ele>
<time>2024-04-08T10:13:22.007Z</time>
</trkpt>
<trkpt lat="53.9392821" lon="28.3817384">
<ele>0.000000</ele>
<time>2024-04-08T10:13:24.001Z</time>
</trkpt>
<trkpt lat="53.9364962" lon="28.3644660">
<ele>0.000000</ele>
<time>2024-04-08T10:13:28.005Z</time>
</trkpt>
<trkpt lat="53.9425898" lon="28.3541363">
<ele>0.000000</ele>
<time>2024-04-08T10:13:30.004Z</time>
</trkpt>
<trkpt lat="53.9450367" lon="28.3423826">
<ele>0.000000</ele>
<time>2024-04-08T10:13:32.009Z</time>
</trkpt>
<trkpt lat="53.9548770" lon="28.3083997">
<ele>0.000000</ele>
<time>2024-04-08T10:13:34.005Z</time>
</trkpt>
<trkpt lat="53.9585337" lon="28.2985619">
<ele>0.000000</ele>
<time>2024-04-08T10:13:38.009Z</time>
</trkpt>
<trkpt lat="53.9595350" lon="28.2819358">
<ele>0.000000</ele>
<time>2024-04-08T10:13:40.004Z</time>
</trkpt>
<trkpt lat="53.9675231" lon="28.2690338">
<ele>0.000000</ele>
<time>2024-04-08T10:13:41.004Z</time>
</trkpt>
<trkpt lat="53.9670076" lon="28.2355128">
<ele>0.000000</ele>
<time>2024-04-08T10:13:44.009Z</time>
</trkpt>
<trkpt lat="53.9726375" lon="28.2090337">
<ele>0.000000</ele>
<time>2024-04-08T10:13:45.001Z</time>
</trkpt>
<trkpt lat="53.9761338" lon="28.1819072">
<ele>0.000000</ele>
<time>2024-04-08T10:13:46.000Z</time>
</trkpt>
<trkpt lat="53.9814501" lon="28.1629661">
<ele>0.000000</ele>
<time>2024-04-08T10:13:49.002Z</time>
</trkpt>
<trkpt lat="53.9987610" lon="28.1246767">
<ele>0.000000</ele>
<time>2024-04-08T10:13:51.004Z</time>
</trkpt>
</trkseg>
<trkseg>
<trkpt lat="53.9157115" lon="28.5668946">
<ele>0.000000</ele>
<time>2024-04-08T10:11:07.000Z</time>
</trkpt>
</trkseg>
<trkseg>
<trkpt lat="53.9210779" lon="28.5535782">
<ele>0.000000</ele>
<time>2024-04-08T10:11:16.000Z</time>
</trkpt>
<trkpt lat="53.9247794" lon="28.5438462">
<ele>0.000000</ele>
<time>2024-04-08T10:11:17.000Z</time>
</trkpt>
<trkpt lat="53.9262017" lon="28.5342560">
<ele>0.000000</ele>
<time>2024-04-08T10:11:18.005Z</time>
</trkpt>
<trkpt lat="53.9294585" lon="28.5300176">
<ele>0.000000</ele>
<time>2024-04-08T10:11:19.005Z</time>
</trkpt>
<trkpt lat="53.9332451" lon="28.5250083">
<ele>0.000000</ele>
<time>2024-04-08T10:11:22.002Z</time>
</trkpt>
<trkpt lat="53.9386304" lon="28.5215198">
<ele>0.000000</ele>
<time>2024-04-08T10:11:23.008Z</time>
</trkpt>
<trkpt lat="53.9399169" lon="28.5194660">
<ele>0.000000</ele>
<time>2024-04-08T10:11:29.005Z</time>
</trkpt>
<trkpt lat="53.9409688" lon="28.5146024">
<ele>0.000000</ele>
<time>2024-04-08T10:11:30.002Z</time>
</trkpt>
<trkpt lat="53.9449774" lon="28.5074160">
<ele>0.000000</ele>
<time>2024-04-08T10:11:32.002Z</time>
</trkpt>
</trkseg>
<trkseg>
<trkpt lat="53.9581252" lon="28.6915335">
<ele>0.000000</ele>
<time>2024-04-08T10:06:14.009Z</time>
</trkpt>
<trkpt lat="53.9556891" lon="28.6857888">
<ele>0.000000</ele>
<time>2024-04-08T10:06:17.005Z</time>
</trkpt>
<trkpt lat="53.9533313" lon="28.6827287">
<ele>0.000000</ele>
<time>2024-04-08T10:07:08.001Z</time>
</trkpt>
<trkpt lat="53.9507435" lon="28.6776248">
<ele>0.000000</ele>
<time>2024-04-08T10:07:25.002Z</time>
</trkpt>
<trkpt lat="53.9483102" lon="28.6750770">
<ele>0.000000</ele>
<time>2024-04-08T10:07:26.008Z</time>
</trkpt>
<trkpt lat="53.9450354" lon="28.6672929">
<ele>0.000000</ele>
<time>2024-04-08T10:07:34.008Z</time>
</trkpt>
<trkpt lat="53.9427449" lon="28.6572060">
<ele>0.000000</ele>
<time>2024-04-08T10:07:35.008Z</time>
</trkpt>
<trkpt lat="53.9387106" lon="28.6504496">
<ele>0.000000</ele>
<time>2024-04-08T10:07:37.007Z</time>
</trkpt>
<trkpt lat="53.9320047" lon="28.6343797">
<ele>0.000000</ele>
<time>2024-04-08T10:07:38.000Z</time>
</trkpt>
<trkpt lat="53.9309210" lon="28.6204592">
<ele>0.000000</ele>
<time>2024-04-08T10:07:39.004Z</time>
</trkpt>
<trkpt lat="53.9307436" lon="28.6043629">
<ele>0.000000</ele>
<time>2024-04-08T10:07:40.003Z</time>
</trkpt>
<trkpt lat="53.9264689" lon="28.5921219">
<ele>0.000000</ele>
<time>2024-04-08T10:07:43.007Z</time>
</trkpt>
<trkpt lat="53.9222756" lon="28.5834594">
<ele>0.000000</ele>
<time>2024-04-08T10:07:51.001Z</time>
</trkpt>
<trkpt lat="53.9204371" lon="28.5751678">
<ele>0.000000</ele>
<time>2024-04-08T10:07:51.003Z</time>
</trkpt>
<trkpt lat="53.9157117" lon="28.5670223">
<ele>0.000000</ele>
<time>2024-04-08T10:07:53.005Z</time>
</trkpt>
<trkpt lat="53.9142024" lon="28.5721398">
<ele>0.000000</ele>
<time>2024-04-08T10:07:54.009Z</time>
</trkpt>
<trkpt lat="53.9102532" lon="28.5725466">
<ele>0.000000</ele>
<time>2024-04-08T10:07:55.007Z</time>
</trkpt>
<trkpt lat="53.9030408" lon="28.5746325">
<ele>0.000000</ele>
<time>2024-04-08T10:07:57.001Z</time>
</trkpt>
<trkpt lat="53.9012957" lon="28.5756642">
<ele>0.000000</ele>
<time>2024-04-08T10:07:59.003Z</time>
</trkpt>
<trkpt lat="53.8911574" lon="28.5981880">
<ele>0.000000</ele>
<time>2024-04-08T10:08:01.007Z</time>
</trkpt>
<trkpt lat="53.8857837" lon="28.6099578">
<ele>0.000000</ele>
<time>2024-04-08T10:08:07.008Z</time>
</trkpt>
<trkpt lat="53.8871553" lon="28.6126309">
<ele>0.000000</ele>
<time>2024-04-08T10:08:08.003Z</time>
</trkpt>
<trkpt lat="53.8854154" lon="28.6172338">
<ele>0.000000</ele>
<time>2024-04-08T10:08:11.006Z</time>
</trkpt>
<trkpt lat="53.8848063" lon="28.6163435">
<ele>0.000000</ele>
<time>2024-04-08T10:08:12.005Z</time>
</trkpt>
</trkseg>
<trkseg>
<trkpt lat="53.9602917" lon="28.7505901">
<ele>0.000000</ele>
<time>2024-04-08T10:02:53.000Z</time>
</trkpt>
<trkpt lat="53.9612010" lon="28.7454747">
<ele>0.000000</ele>
<time>2024-04-08T10:02:54.005Z</time>
</trkpt>
<trkpt lat="53.9602877" lon="28.7417690">
<ele>0.000000</ele>
<time>2024-04-08T10:02:55.003Z</time>
</trkpt>
<trkpt lat="53.9605140" lon="28.7388281">
<ele>0.000000</ele>
<time>2024-04-08T10:02:56.006Z</time>
</trkpt>
<trkpt lat="53.9614990" lon="28.7342237">
<ele>0.000000</ele>
<time>2024-04-08T10:02:57.006Z</time>
</trkpt>
<trkpt lat="53.9621774" lon="28.7255286">
<ele>0.000000</ele>
<time>2024-04-08T10:02:58.001Z</time>
</trkpt>
<trkpt lat="53.9639202" lon="28.7191319">
<ele>0.000000</ele>
<time>2024-04-08T10:03:00.004Z</time>
</trkpt>
<trkpt lat="53.9614101" lon="28.7141521">
<ele>0.000000</ele>
<time>2024-04-08T10:03:01.001Z</time>
</trkpt>
<trkpt lat="53.9598111" lon="28.7090425">
<ele>0.000000</ele>
<time>2024-04-08T10:03:02.005Z</time>
</trkpt>
<trkpt lat="53.9577556" lon="28.7032955">
<ele>0.000000</ele>
<time>2024-04-08T10:03:03.009Z</time>
</trkpt>
<trkpt lat="53.9561565" lon="28.6985703">
<ele>0.000000</ele>
<time>2024-04-08T10:03:05.002Z</time>
</trkpt>
<trkpt lat="53.9557780" lon="28.7001054">
<ele>0.000000</ele>
<time>2024-04-08T10:03:16.001Z</time>
</trkpt>
<trkpt lat="53.9560043" lon="28.6981873">
<ele>0.000000</ele>
<time>2024-04-08T10:03:17.001Z</time>
</trkpt>
<trkpt lat="53.9553948" lon="28.6961438">
<ele>0.000000</ele>
<time>2024-04-08T10:03:23.007Z</time>
</trkpt>
<trkpt lat="53.9581273" lon="28.6938345">
<ele>0.000000</ele>
<time>2024-04-08T10:04:34.004Z</time>
</trkpt>
<trkpt lat="53.9583533" lon="28.6917884">
<ele>0.000000</ele>
<time>2024-04-08T10:04:35.006Z</time>
</trkpt>
<trkpt lat="53.9596438" lon="28.6908895">
<ele>0.000000</ele>
<time>2024-04-08T10:04:46.001Z</time>
</trkpt>
<trkpt lat="53.9623697" lon="28.6819315">
<ele>0.000000</ele>
<time>2024-04-08T10:04:49.001Z</time>
</trkpt>
<trkpt lat="53.9644940" lon="28.6793672">
<ele>0.000000</ele>
<time>2024-04-08T10:04:50.006Z</time>
</trkpt>
<trkpt lat="53.9659360" lon="28.6782115">
<ele>0.000000</ele>
<time>2024-04-08T10:04:54.000Z</time>
</trkpt>
<trkpt lat="53.9669948" lon="28.6737327">
<ele>0.000000</ele>
<time>2024-04-08T10:04:55.007Z</time>
</trkpt>
<trkpt lat="53.9732986" lon="28.6729430">
<ele>0.000000</ele>
<time>2024-04-08T10:04:59.000Z</time>
</trkpt>
<trkpt lat="53.9747418" lon="28.6729379">
<ele>0.000000</ele>
<time>2024-04-08T10:05:04.002Z</time>
</trkpt>
</trkseg>
</trk>
</gpx>
